Camana, Peru
Current Conditions -  °F | °C
As of 3:00 AM on Monday 22 Dec 2014 (Local Time) from SPQU Reporting Station
Clear Clear  
Wind Chill:   Ceiling: Unl
Heat Index:   Visibility: 6mi
Dew Point: -1°   Wind: 3mph
Humidity: 50%   Direction: 50°NE
Pressure: 30.24"   Gusts: NA
Location:  16.62°S, 72.72°W
Report Text: SPQU 220800Z 05003KT CAVOK 09/M01 Q1024 RMK PP000
Loading
Personal Weather Stations






























Interactive Weather Map New forecast layout! Learn more

10-Day Weather Forecast

Advertisements
Track Severe Weather on mobile